Time;durP1;ratioP1;P1;durP2;ratioP2;P2;SDS_P1;SDS_P2;PMS_P1;PMS_P2;Temp;Humidity;BMP_temperature;BMP_pressure;BME280_temperature;BME280_humidity;BME280_pressure;Samples;Min_cycle;Max_cycle;Signal;HPM_P1;HPM_P2
2023/07/26 00:02:18;;;;;;;5.70;2.30;;;11.80;99.90;;;;;;5046387;28;20510;-62
2023/07/26 00:04:44;;;;;;;3.30;1.73;;;11.80;99.90;;;;;;5047448;28;20086;-62
2023/07/26 00:07:10;;;;;;;4.20;1.80;;;11.70;99.90;;;;;;5047887;28;20029;-60
2023/07/26 00:09:35;;;;;;;4.40;1.92;;;11.80;99.90;;;;;;5047762;28;20036;-62
2023/07/26 00:12:01;;;;;;;3.28;2.03;;;11.70;99.90;;;;;;5047665;28;20028;-60
2023/07/26 00:14:27;;;;;;;3.50;1.80;;;11.70;99.90;;;;;;5047064;28;20040;-61
2023/07/26 00:16:52;;;;;;;2.40;1.83;;;11.70;99.90;;;;;;5047582;28;20021;-63
2023/07/26 00:19:23;;;;;;;4.20;2.00;;;11.70;99.90;;;;;;5047989;28;20060;-62
2023/07/26 00:21:49;;;;;;;2.55;1.90;;;11.70;99.90;;;;;;5046854;28;20070;-62
2023/07/26 00:24:15;;;;;;;3.15;1.90;;;11.70;99.90;;;;;;5046300;28;20029;-61
2023/07/26 00:26:40;;;;;;;2.65;1.63;;;11.70;99.90;;;;;;5047371;28;20033;-62
2023/07/26 00:29:06;;;;;;;4.10;1.90;;;11.70;99.90;;;;;;5047505;28;20031;-62
2023/07/26 00:31:32;;;;;;;4.13;2.25;;;11.70;99.90;;;;;;5046591;28;20039;-61
2023/07/26 00:33:57;;;;;;;3.55;1.92;;;11.60;99.90;;;;;;5045892;28;20025;-62
2023/07/26 00:36:23;;;;;;;3.33;2.50;;;11.60;99.90;;;;;;5044180;28;20034;-61
2023/07/26 00:38:48;;;;;;;2.13;1.90;;;11.60;99.90;;;;;;5045193;28;20021;-61
2023/07/26 00:41:14;;;;;;;3.10;1.73;;;11.50;99.90;;;;;;5039167;28;20105;-62
2023/07/26 00:43:39;;;;;;;2.88;1.90;;;11.50;99.90;;;;;;5047373;28;20087;-62
2023/07/26 00:46:06;;;;;;;4.55;1.95;;;11.50;99.90;;;;;;5043492;28;20108;-61
2023/07/26 00:48:36;;;;;;;2.90;1.65;;;11.50;99.90;;;;;;5047221;28;20898;-61
2023/07/26 00:51:02;;;;;;;3.50;1.77;;;11.50;99.90;;;;;;5045736;28;20017;-62
2023/07/26 00:53:28;;;;;;;3.78;2.20;;;11.50;99.90;;;;;;5047236;28;20025;-62
2023/07/26 00:55:54;;;;;;;3.15;1.85;;;11.50;99.90;;;;;;5041137;28;20487;-63
2023/07/26 00:58:20;;;;;;;4.30;1.70;;;11.50;99.90;;;;;;5038448;28;20116;-63
2023/07/26 01:00:47;;;;;;;2.67;1.63;;;11.50;99.90;;;;;;5044092;28;20120;-62
2023/07/26 01:03:16;;;;;;;2.17;1.88;;;11.50;99.90;;;;;;5044683;28;20032;-62
2023/07/26 01:06:07;;;;;;;4.70;2.30;;;11.40;99.90;;;;;;5046358;28;20451;-62
2023/07/26 01:09:01;;;;;;;5.68;2.25;;;11.50;99.90;;;;;;5045485;28;20025;-62
2023/07/26 01:11:34;;;;;;;3.25;1.58;;;11.50;99.90;;;;;;5041596;28;20633;-61
2023/07/26 01:14:16;;;;;;;4.18;1.70;;;11.40;99.90;;;;;;5046513;28;20029;-61
2023/07/26 01:16:43;;;;;;;4.75;2.03;;;11.50;99.90;;;;;;5045206;28;20052;-61
2023/07/26 01:19:08;;;;;;;3.45;1.98;;;11.40;99.90;;;;;;5046569;28;20063;-61
2023/07/26 01:21:34;;;;;;;6.40;2.60;;;11.40;99.90;;;;;;5046188;28;20061;-62
2023/07/26 01:23:59;;;;;;;3.95;1.80;;;11.40;99.90;;;;;;5046444;28;20029;-61
2023/07/26 01:26:25;;;;;;;1.50;1.35;;;11.50;99.90;;;;;;5046571;28;20372;-61
2023/07/26 01:28:51;;;;;;;4.13;2.15;;;11.50;99.90;;;;;;5046420;28;20013;-61
2023/07/26 01:31:18;;;;;;;4.70;2.25;;;11.50;99.90;;;;;;5046350;28;20033;-62
2023/07/26 01:33:45;;;;;;;4.22;2.17;;;11.50;99.90;;;;;;5046492;28;20033;-61
2023/07/26 01:36:11;;;;;;;6.38;2.53;;;11.50;99.90;;;;;;5044951;28;20029;-62
2023/07/26 01:38:38;;;;;;;4.60;2.65;;;11.50;99.90;;;;;;5046162;28;20402;-61
2023/07/26 01:41:05;;;;;;;3.35;2.17;;;11.60;99.90;;;;;;5046339;28;20479;-61
2023/07/26 01:43:32;;;;;;;3.50;2.40;;;11.60;99.90;;;;;;5046189;28;20036;-60
2023/07/26 01:45:57;;;;;;;4.30;1.88;;;11.60;99.90;;;;;;5041049;28;20021;-61
2023/07/26 01:48:23;;;;;;;3.88;1.40;;;11.60;99.90;;;;;;5046280;28;20039;-60
2023/07/26 01:50:48;;;;;;;2.95;2.00;;;11.60;99.90;;;;;;5046307;28;20051;-61
2023/07/26 01:53:14;;;;;;;4.03;2.13;;;11.60;99.90;;;;;;5046645;28;20090;-61
2023/07/26 01:55:39;;;;;;;4.35;1.75;;;11.60;99.90;;;;;;5045364;28;20021;-60
2023/07/26 01:58:05;;;;;;;3.25;1.95;;;11.60;99.90;;;;;;5051751;28;20028;-61
2023/07/26 02:00:30;;;;;;;3.92;2.03;;;11.60;99.90;;;;;;5048294;28;20665;-61
2023/07/26 02:02:56;;;;;;;5.65;2.00;;;11.60;99.90;;;;;;5050551;28;20096;-61
2023/07/26 02:05:21;;;;;;;3.65;1.85;;;11.50;99.90;;;;;;5048484;28;20465;-62
2023/07/26 02:07:47;;;;;;;2.55;1.50;;;11.50;99.90;;;;;;5050305;28;20540;-61
2023/07/26 02:10:13;;;;;;;2.28;1.70;;;11.50;99.90;;;;;;5050246;28;20029;-62
2023/07/26 02:12:38;;;;;;;2.78;1.77;;;11.50;99.90;;;;;;5049882;28;20029;-61
2023/07/26 02:15:05;;;;;;;4.20;2.08;;;11.50;99.90;;;;;;5049665;28;20033;-61
2023/07/26 02:17:30;;;;;;;1.90;1.70;;;11.50;99.90;;;;;;5058940;22;20091;-57
2023/07/26 02:19:56;;;;;;;2.00;1.80;;;11.50;99.90;;;;;;5030056;28;20049;-56
2023/07/26 02:22:22;;;;;;;3.40;1.75;;;11.50;99.90;;;;;;5031425;28;20112;-53
2023/07/26 02:24:47;;;;;;;2.40;1.77;;;11.40;99.90;;;;;;5044788;28;20437;-56
2023/07/26 02:27:13;;;;;;;3.28;1.83;;;11.40;99.90;;;;;;5024748;28;20129;-54
2023/07/26 02:29:38;;;;;;;3.67;1.50;;;11.40;99.90;;;;;;5028464;28;20037;-55
2023/07/26 02:32:04;;;;;;;2.67;1.83;;;11.40;99.90;;;;;;5043903;28;20406;-54
2023/07/26 02:34:30;;;;;;;1.75;1.60;;;11.40;99.90;;;;;;5048556;28;20143;-53
2023/07/26 02:36:55;;;;;;;2.67;2.05;;;11.40;99.90;;;;;;5043260;28;20518;-55
2023/07/26 02:39:21;;;;;;;2.72;1.83;;;11.30;99.90;;;;;;5049648;28;20022;-55
2023/07/26 02:41:47;;;;;;;2.17;1.80;;;11.30;99.90;;;;;;5045182;28;20501;-56
2023/07/26 02:44:12;;;;;;;3.03;1.20;;;11.30;99.90;;;;;;5046497;28;20033;-57
2023/07/26 02:46:38;;;;;;;3.50;1.63;;;11.30;99.90;;;;;;5049331;28;20029;-54
2023/07/26 02:49:03;;;;;;;1.73;1.17;;;11.30;99.90;;;;;;5047344;28;20040;-56
2023/07/26 02:51:29;;;;;;;3.97;1.80;;;11.30;99.90;;;;;;5047095;28;20021;-54
2023/07/26 02:53:54;;;;;;;2.22;1.65;;;11.30;99.90;;;;;;5047664;28;20074;-54
2023/07/26 02:56:20;;;;;;;1.83;1.60;;;11.20;99.90;;;;;;5040881;28;20398;-55
2023/07/26 02:58:45;;;;;;;3.42;1.85;;;11.20;99.90;;;;;;5040974;28;20025;-55
2023/07/26 03:01:11;;;;;;;4.82;2.03;;;11.20;99.90;;;;;;5045614;28;20033;-54
2023/07/26 03:03:36;;;;;;;4.75;2.38;;;11.20;99.90;;;;;;5041877;28;20036;-55
2023/07/26 03:06:02;;;;;;;4.75;1.50;;;11.20;99.90;;;;;;5042911;28;20029;-56
2023/07/26 03:08:27;;;;;;;3.47;2.05;;;11.10;99.90;;;;;;5043739;28;20108;-55
2023/07/26 03:10:53;;;;;;;2.88;1.98;;;11.20;99.90;;;;;;5043713;28;20021;-55
2023/07/26 03:13:19;;;;;;;2.97;1.90;;;11.20;99.90;;;;;;5044184;28;20025;-56
2023/07/26 03:15:45;;;;;;;3.63;1.92;;;11.20;99.90;;;;;;5045711;28;20040;-55
2023/07/26 03:18:10;;;;;;;4.32;2.03;;;11.20;99.90;;;;;;5043051;28;20117;-56
2023/07/26 03:20:36;;;;;;;3.90;1.83;;;11.20;99.90;;;;;;5047243;28;20104;-54
2023/07/26 03:23:01;;;;;;;4.50;1.70;;;11.10;99.90;;;;;;5041702;28;20043;-55
2023/07/26 03:25:27;;;;;;;2.17;1.52;;;11.10;99.90;;;;;;5048136;28;20025;-55
2023/07/26 03:27:53;;;;;;;1.83;1.73;;;11.20;99.90;;;;;;5044928;28;20055;-56
2023/07/26 03:30:18;;;;;;;1.60;1.40;;;11.10;99.90;;;;;;5046091;28;20036;-55
2023/07/26 03:32:44;;;;;;;3.38;2.22;;;11.10;99.90;;;;;;5045746;28;20043;-51
2023/07/26 03:35:10;;;;;;;3.08;2.05;;;11.10;99.90;;;;;;5044348;28;20029;-56
2023/07/26 03:37:35;;;;;;;2.22;1.58;;;11.10;99.90;;;;;;5045158;28;20557;-54
2023/07/26 03:40:01;;;;;;;3.30;1.77;;;11.10;99.90;;;;;;5039510;28;20048;-54
2023/07/26 03:42:27;;;;;;;2.38;1.77;;;11.10;99.90;;;;;;5046085;28;20483;-55
2023/07/26 03:44:53;;;;;;;1.90;1.70;;;11.10;99.90;;;;;;5037218;28;20026;-57
2023/07/26 03:47:18;;;;;;;4.65;2.17;;;11.10;99.90;;;;;;5044807;28;20408;-57
2023/07/26 03:49:44;;;;;;;7.15;1.80;;;11.10;99.90;;;;;;5036998;28;20039;-54
2023/07/26 03:52:10;;;;;;;4.38;1.73;;;11.10;99.90;;;;;;5042000;28;20228;-54
2023/07/26 03:54:35;;;;;;;4.20;2.55;;;11.20;99.90;;;;;;5039824;28;20040;-55
2023/07/26 03:57:01;;;;;;;4.78;1.90;;;11.20;99.90;;;;;;5043416;28;20030;-57
2023/07/26 03:59:26;;;;;;;4.35;1.80;;;11.20;99.90;;;;;;5040606;28;20076;-56
2023/07/26 04:01:52;;;;;;;2.92;2.05;;;11.20;99.90;;;;;;5042959;28;20043;-57
2023/07/26 04:04:17;;;;;;;2.15;1.80;;;11.20;99.90;;;;;;5039874;28;20104;-57
2023/07/26 04:06:43;;;;;;;2.50;1.83;;;11.20;99.90;;;;;;5044647;28;20033;-54
2023/07/26 04:09:08;;;;;;;3.28;1.95;;;11.20;99.90;;;;;;5038779;28;20049;-57
2023/07/26 04:11:34;;;;;;;2.75;2.17;;;11.20;99.90;;;;;;5046720;28;20075;-55
2023/07/26 04:13:59;;;;;;;3.47;2.20;;;11.30;99.90;;;;;;5041718;28;20021;-54
2023/07/26 04:16:25;;;;;;;3.75;2.00;;;11.30;99.90;;;;;;5044158;28;20107;-54
2023/07/26 04:18:52;;;;;;;3.75;2.15;;;11.30;99.90;;;;;;5042556;28;20032;-56
2023/07/26 04:21:18;;;;;;;3.80;1.90;;;11.30;99.90;;;;;;5044156;28;20045;-54
2023/07/26 04:23:45;;;;;;;7.82;3.72;;;11.40;99.90;;;;;;5042473;28;20049;-53
2023/07/26 04:26:10;;;;;;;3.53;1.63;;;11.40;99.90;;;;;;5043864;28;20626;-54
2023/07/26 04:28:36;;;;;;;1.88;1.65;;;11.50;99.90;;;;;;5046151;28;20105;-55
2023/07/26 04:31:02;;;;;;;3.13;2.20;;;11.50;99.90;;;;;;5039034;28;20330;-55
2023/07/26 04:33:29;;;;;;;2.92;1.60;;;11.60;99.90;;;;;;5038191;28;20033;-56
2023/07/26 04:35:54;;;;;;;3.90;1.80;;;11.60;99.90;;;;;;5039123;28;20057;-55
2023/07/26 04:38:21;;;;;;;4.03;2.13;;;11.70;99.90;;;;;;5044931;28;20522;-54
2023/07/26 04:40:47;;;;;;;3.78;1.85;;;11.80;99.90;;;;;;5038577;28;20029;-57
2023/07/26 04:43:20;;;;;;;5.00;2.63;;;11.80;99.90;;;;;;5045040;28;20131;-57
2023/07/26 04:45:50;;;;;;;4.05;2.20;;;11.90;99.90;;;;;;5056456;28;20021;-55
2023/07/26 04:48:16;;;;;;;3.95;2.10;;;11.90;99.90;;;;;;5044342;28;20032;-54
2023/07/26 04:50:43;;;;;;;3.92;2.15;;;11.90;99.90;;;;;;5038416;28;20062;-57
2023/07/26 04:53:08;;;;;;;5.22;2.30;;;11.90;99.90;;;;;;5043256;28;20013;-53
2023/07/26 04:55:43;;;;;;;5.95;2.63;;;12.00;99.90;;;;;;5039185;28;20021;-55
2023/07/26 04:58:09;;;;;;;3.33;2.00;;;12.00;99.90;;;;;;5034976;28;20025;-56
2023/07/26 05:00:38;;;;;;;4.55;2.40;;;12.10;99.90;;;;;;5043707;28;20032;-56
2023/07/26 05:03:04;;;;;;;3.67;1.77;;;12.10;99.90;;;;;;5041747;28;20021;-56
2023/07/26 05:05:29;;;;;;;4.32;2.13;;;12.20;99.90;;;;;;5044434;28;20028;-56
2023/07/26 05:07:55;;;;;;;2.55;1.95;;;12.20;99.90;;;;;;5040760;28;20028;-54
2023/07/26 05:10:20;;;;;;;3.10;1.67;;;12.20;99.90;;;;;;5043351;28;20071;-56
2023/07/26 05:12:46;;;;;;;4.03;2.03;;;12.20;99.90;;;;;;5045498;28;20086;-56
2023/07/26 05:15:11;;;;;;;3.17;2.17;;;12.20;99.90;;;;;;5044221;28;20017;-56
2023/07/26 05:17:37;;;;;;;1.88;1.58;;;12.20;99.90;;;;;;5043976;28;20029;-54
2023/07/26 05:20:03;;;;;;;4.03;1.88;;;12.20;99.90;;;;;;5041747;28;20310;-57
2023/07/26 05:22:29;;;;;;;2.78;2.13;;;12.20;99.90;;;;;;5042815;28;20384;-56
2023/07/26 05:24:54;;;;;;;3.08;1.70;;;12.30;99.90;;;;;;5044156;28;20467;-56
2023/07/26 05:27:20;;;;;;;4.90;2.20;;;12.30;99.90;;;;;;5043007;28;20107;-53
2023/07/26 05:29:45;;;;;;;6.10;2.22;;;12.30;99.90;;;;;;5037227;28;20033;-50
2023/07/26 05:32:11;;;;;;;5.85;2.30;;;12.40;99.90;;;;;;5044311;28;20044;-53
2023/07/26 05:34:37;;;;;;;4.82;2.30;;;12.40;99.90;;;;;;5042148;28;20026;-54
2023/07/26 05:37:03;;;;;;;2.45;1.90;;;12.40;99.90;;;;;;5049105;28;20021;-53
2023/07/26 05:39:29;;;;;;;6.10;2.70;;;12.50;99.90;;;;;;5048505;28;20055;-54
2023/07/26 05:41:55;;;;;;;5.75;2.50;;;12.60;99.90;;;;;;5048750;28;20131;-55
2023/07/26 05:44:20;;;;;;;4.88;2.22;;;12.60;99.90;;;;;;5049435;28;20021;-54
2023/07/26 05:46:46;;;;;;;5.63;2.28;;;12.70;99.90;;;;;;5047287;28;20104;-55
2023/07/26 05:49:11;;;;;;;5.50;2.13;;;12.70;99.90;;;;;;5049814;28;20025;-56
2023/07/26 05:51:37;;;;;;;4.13;2.03;;;12.80;99.90;;;;;;5047261;28;20040;-56
2023/07/26 05:54:03;;;;;;;5.82;3.10;;;12.90;99.90;;;;;;5047612;28;20044;-54
2023/07/26 05:56:28;;;;;;;6.63;2.72;;;12.90;99.90;;;;;;5042945;28;20104;-53
2023/07/26 05:58:54;;;;;;;3.60;2.15;;;13.00;99.90;;;;;;5044639;28;20044;-54
2023/07/26 06:01:19;;;;;;;5.22;1.75;;;13.10;99.90;;;;;;5043246;28;20086;-53
2023/07/26 06:03:45;;;;;;;3.63;2.25;;;13.10;99.90;;;;;;5042485;28;20030;-54
2023/07/26 06:06:11;;;;;;;3.28;1.95;;;13.20;99.90;;;;;;5043121;28;20495;-55
2023/07/26 06:08:36;;;;;;;3.13;1.85;;;13.30;99.90;;;;;;5042114;28;20036;-55
2023/07/26 06:11:02;;;;;;;6.13;2.25;;;13.40;99.90;;;;;;5041174;28;20028;-55
2023/07/26 06:13:28;;;;;;;2.38;1.90;;;13.50;99.90;;;;;;5049066;28;20040;-55
2023/07/26 06:15:53;;;;;;;4.57;1.95;;;13.60;99.90;;;;;;5040816;28;20166;-57
2023/07/26 06:18:19;;;;;;;4.05;2.38;;;13.80;99.90;;;;;;5049324;28;20041;-53
2023/07/26 06:20:45;;;;;;;2.78;1.75;;;13.90;99.90;;;;;;5040141;28;20009;-56
2023/07/26 06:23:11;;;;;;;4.28;1.70;;;14.00;99.90;;;;;;5049575;28;20028;-56
2023/07/26 06:25:36;;;;;;;2.75;1.90;;;14.00;99.90;;;;;;5039498;28;20048;-56
2023/07/26 06:28:02;;;;;;;3.75;1.70;;;14.20;99.90;;;;;;5048369;28;20216;-58
2023/07/26 06:30:27;;;;;;;2.88;1.85;;;14.30;99.90;;;;;;5041430;28;20028;-56
2023/07/26 06:32:53;;;;;;;3.72;2.20;;;14.40;99.90;;;;;;5037941;28;20403;-56
2023/07/26 06:35:19;;;;;;;4.75;2.10;;;14.50;99.90;;;;;;5044054;28;20029;-56
2023/07/26 06:37:44;;;;;;;3.03;1.90;;;14.50;99.90;;;;;;5047263;28;20037;-57
2023/07/26 06:40:10;;;;;;;4.22;1.80;;;14.50;99.90;;;;;;5045172;28;20053;-55
2023/07/26 06:42:36;;;;;;;3.15;1.60;;;14.60;99.90;;;;;;5039047;28;20471;-57
2023/07/26 06:45:02;;;;;;;3.95;2.00;;;14.70;99.90;;;;;;5030148;28;20017;-57
2023/07/26 06:47:28;;;;;;;9.70;2.10;;;14.80;99.90;;;;;;5040174;28;20025;-57
2023/07/26 06:49:53;;;;;;;2.72;1.70;;;14.90;99.90;;;;;;5044643;28;20108;-57
2023/07/26 06:52:19;;;;;;;4.40;1.70;;;15.00;99.90;;;;;;5038834;28;20028;-57
2023/07/26 06:54:45;;;;;;;2.38;1.88;;;15.10;99.90;;;;;;5047807;28;20549;-57
2023/07/26 06:57:10;;;;;;;4.13;1.77;;;15.20;99.90;;;;;;5040819;28;20072;-55
2023/07/26 06:59:36;;;;;;;5.10;2.03;;;15.40;99.90;;;;;;5047400;28;20032;-57
2023/07/26 07:02:05;;;;;;;2.95;1.50;;;15.50;99.90;;;;;;5041017;28;20021;-58
2023/07/26 07:04:32;;;;;;;2.95;1.58;;;15.60;99.90;;;;;;5045597;28;20044;-58
2023/07/26 07:06:58;;;;;;;4.40;1.58;;;15.70;99.90;;;;;;5042255;28;20037;-58
2023/07/26 07:09:24;;;;;;;6.80;1.75;;;15.90;99.90;;;;;;5042521;28;20101;-57
2023/07/26 07:11:50;;;;;;;4.35;1.60;;;16.00;99.90;;;;;;5044700;28;20029;-56
2023/07/26 07:14:15;;;;;;;3.22;1.55;;;15.90;99.90;;;;;;5041348;28;20031;-58
2023/07/26 07:16:41;;;;;;;4.13;1.77;;;15.90;99.90;;;;;;5043751;28;20060;-57
2023/07/26 07:19:06;;;;;;;4.82;1.67;;;15.90;99.90;;;;;;5037194;28;20017;-54
2023/07/26 07:21:32;;;;;;;4.95;1.75;;;16.00;99.90;;;;;;5044612;28;20037;-53
2023/07/26 07:23:57;;;;;;;6.50;1.73;;;16.20;99.90;;;;;;5036462;28;20168;-55
2023/07/26 07:26:23;;;;;;;4.25;1.92;;;16.30;99.90;;;;;;5043620;28;20452;-53
2023/07/26 07:28:49;;;;;;;2.85;1.67;;;16.40;99.90;;;;;;5036249;28;20032;-56
2023/07/26 07:31:14;;;;;;;4.40;2.05;;;16.50;99.90;;;;;;5043007;28;20537;-57
2023/07/26 07:33:40;;;;;;;2.45;1.88;;;16.70;99.90;;;;;;5041837;28;20495;-55
2023/07/26 07:36:06;;;;;;;3.55;1.60;;;16.90;99.90;;;;;;5044656;28;20017;-56
2023/07/26 07:38:32;;;;;;;6.05;1.55;;;16.90;99.90;;;;;;5045480;28;20597;-58
2023/07/26 07:40:58;;;;;;;2.08;1.35;;;17.00;99.90;;;;;;5044353;28;20029;-56
2023/07/26 07:43:24;;;;;;;2.20;1.35;;;17.10;99.90;;;;;;5046136;28;20549;-59
2023/07/26 07:45:50;;;;;;;3.83;1.70;;;17.30;99.90;;;;;;5042533;28;20021;-56
2023/07/26 07:48:16;;;;;;;2.92;1.70;;;17.40;99.90;;;;;;5046582;28;20387;-56
2023/07/26 07:50:41;;;;;;;2.28;1.20;;;17.60;99.90;;;;;;5042188;28;20024;-57
2023/07/26 07:53:07;;;;;;;5.18;1.60;;;17.70;99.90;;;;;;5041437;28;20021;-57
2023/07/26 07:55:37;;;;;;;5.72;1.60;;;17.80;99.90;;;;;;5042336;28;20021;-57
2023/07/26 07:58:04;;;;;;;3.78;1.42;;;17.80;99.90;;;;;;5046158;28;20048;-56
2023/07/26 08:00:29;;;;;;;3.35;1.42;;;17.90;99.90;;;;;;5045089;28;20490;-58
2023/07/26 08:02:55;;;;;;;4.00;1.48;;;17.90;99.90;;;;;;5045786;28;20100;-57
2023/07/26 08:05:21;;;;;;;3.85;1.33;;;18.00;99.90;;;;;;5045322;28;20029;-57
2023/07/26 08:07:46;;;;;;;2.53;1.23;;;18.00;99.90;;;;;;5045144;28;20025;-58
2023/07/26 08:10:12;;;;;;;1.92;1.50;;;18.10;99.90;;;;;;5044511;28;20021;-58
2023/07/26 08:12:37;;;;;;;3.97;1.30;;;18.10;99.90;;;;;;5042890;28;20053;-56
2023/07/26 08:15:03;;;;;;;5.30;1.30;;;18.30;99.90;;;;;;5042782;28;20029;-57
2023/07/26 08:17:29;;;;;;;4.82;1.75;;;18.40;99.90;;;;;;5059220;22;20041;-60
2023/07/26 08:19:54;;;;;;;3.72;1.38;;;18.50;99.90;;;;;;5025562;28;20044;-58
2023/07/26 08:22:20;;;;;;;3.50;1.58;;;18.60;99.90;;;;;;5041278;28;20025;-63
2023/07/26 08:24:45;;;;;;;4.25;1.70;;;18.40;99.90;;;;;;5040969;28;20021;-62
2023/07/26 08:27:11;;;;;;;4.30;1.23;;;18.10;99.90;;;;;;5042027;28;20051;-62
2023/07/26 08:29:37;;;;;;;7.13;1.40;;;18.00;99.90;;;;;;5035048;28;20041;-63
2023/07/26 08:32:03;;;;;;;2.88;1.38;;;17.80;99.90;;;;;;5046672;28;20036;-60
2023/07/26 08:34:29;;;;;;;4.57;1.65;;;18.10;99.90;;;;;;5043575;28;20321;-65
2023/07/26 08:36:54;;;;;;;4.25;1.67;;;18.30;99.90;;;;;;5025697;28;20024;-62
2023/07/26 08:39:20;;;;;;;4.28;1.67;;;18.60;99.90;;;;;;5044829;28;20066;-57
2023/07/26 08:41:46;;;;;;;1.90;1.13;;;18.80;99.90;;;;;;5042126;28;20018;-63
2023/07/26 08:44:12;;;;;;;3.65;1.20;;;18.90;99.90;;;;;;5027177;28;20465;-63
2023/07/26 08:46:40;;;;;;;2.10;1.17;;;18.60;99.90;;;;;;5040301;28;20033;-61
2023/07/26 08:49:06;;;;;;;1.58;1.40;;;18.40;99.90;;;;;;5035439;28;20036;-62
2023/07/26 08:51:32;;;;;;;2.05;1.08;;;18.50;99.90;;;;;;5039856;28;20799;-61
2023/07/26 08:53:58;;;;;;;4.57;1.20;;;18.60;99.90;;;;;;5031874;28;20025;-65
2023/07/26 08:56:25;;;;;;;3.03;1.17;;;18.70;99.90;;;;;;5025221;28;20479;-62
2023/07/26 08:58:51;;;;;;;3.33;1.27;;;18.70;99.90;;;;;;5031715;28;20021;-62
2023/07/26 09:01:17;;;;;;;2.80;1.20;;;18.90;99.90;;;;;;5045815;28;20025;-64
2023/07/26 09:03:43;;;;;;;2.50;0.70;;;18.90;99.90;;;;;;5016897;28;20029;-63
2023/07/26 09:06:08;;;;;;;1.48;0.95;;;18.80;99.90;;;;;;5027962;28;20020;-63
2023/07/26 09:08:35;;;;;;;4.60;1.13;;;18.90;99.90;;;;;;5034258;28;20025;-62
2023/07/26 09:11:17;;;;;;;1.08;0.85;;;18.90;99.90;;;;;;5045806;28;20017;-62
2023/07/26 09:13:42;;;;;;;1.77;0.98;;;18.90;99.90;;;;;;5040563;28;20508;-63
2023/07/26 09:16:08;;;;;;;1.00;0.50;;;18.60;99.90;;;;;;5044843;28;20064;-62
2023/07/26 09:18:35;;;;;;;2.38;0.95;;;18.60;99.90;;;;;;5023326;28;20049;-63
2023/07/26 09:21:02;;;;;;;1.27;1.00;;;18.60;99.90;;;;;;5044022;28;20112;-62
2023/07/26 09:23:27;;;;;;;1.42;0.93;;;18.50;99.90;;;;;;5042059;28;20156;-61
2023/07/26 09:25:53;;;;;;;2.72;1.38;;;18.60;99.90;;;;;;5025068;28;20049;-63
2023/07/26 09:28:21;;;;;;;0.80;0.75;;;18.60;99.90;;;;;;5022138;28;20030;-61
2023/07/26 09:30:48;;;;;;;1.50;0.75;;;18.60;99.90;;;;;;5038573;28;20060;-62
2023/07/26 09:33:16;;;;;;;0.98;0.70;;;18.50;99.90;;;;;;5039459;28;20018;-61
2023/07/26 09:35:46;;;;;;;1.10;0.90;;;18.50;99.90;;;;;;5023649;28;20036;-60
2023/07/26 09:38:17;;;;;;;1.17;0.70;;;18.70;99.90;;;;;;5044668;28;20396;-62
2023/07/26 09:40:43;;;;;;;0.85;0.75;;;18.80;99.90;;;;;;5041374;28;20675;-61
2023/07/26 09:43:09;;;;;;;0.60;0.60;;;18.90;99.90;;;;;;5044602;28;20017;-60
2023/07/26 09:45:37;;;;;;;0.95;0.85;;;18.90;99.90;;;;;;5022786;28;20498;-62
2023/07/26 09:48:07;;;;;;;2.15;0.90;;;18.80;99.90;;;;;;5044086;28;20107;-59
2023/07/26 09:50:35;;;;;;;0.95;0.43;;;18.60;99.90;;;;;;5040041;28;20048;-62
2023/07/26 09:53:05;;;;;;;0.57;0.57;;;18.30;99.90;;;;;;5025228;28;20495;-60
2023/07/26 09:55:32;;;;;;;0.63;0.60;;;18.40;99.90;;;;;;5044892;28;20514;-62
2023/07/26 09:57:58;;;;;;;1.88;0.60;;;18.50;99.90;;;;;;5024206;28;20036;-62
2023/07/26 10:00:26;;;;;;;0.63;0.50;;;18.50;99.90;;;;;;5037570;28;20029;-62
2023/07/26 10:03:06;;;;;;;2.90;1.00;;;18.60;99.90;;;;;;5031182;28;20092;-62
2023/07/26 10:05:38;;;;;;;2.15;0.85;;;18.60;99.90;;;;;;5045058;28;20032;-61
2023/07/26 10:08:05;;;;;;;1.25;0.73;;;18.50;99.90;;;;;;5040402;28;20053;-61
2023/07/26 10:10:31;;;;;;;1.00;0.70;;;18.50;99.90;;;;;;5024068;28;20353;-62
2023/07/26 10:12:57;;;;;;;0.98;0.63;;;18.50;99.90;;;;;;5045820;28;20033;-61
2023/07/26 10:15:26;;;;;;;1.52;0.73;;;18.70;99.90;;;;;;5024024;28;20032;-60
2023/07/26 10:17:53;;;;;;;1.13;0.70;;;18.80;99.90;;;;;;5043650;28;20694;-61
2023/07/26 10:20:19;;;;;;;1.38;0.77;;;18.90;99.90;;;;;;5043430;28;20100;-60
2023/07/26 10:22:47;;;;;;;1.25;0.85;;;18.80;99.90;;;;;;5046420;28;20399;-61
2023/07/26 10:25:14;;;;;;;1.85;1.00;;;18.70;99.90;;;;;;5043608;28;20021;-56
2023/07/26 10:27:42;;;;;;;0.82;0.50;;;18.70;99.90;;;;;;5045773;28;20428;-60
2023/07/26 10:30:07;;;;;;;0.90;0.68;;;18.70;99.90;;;;;;5041466;28;20043;-61
2023/07/26 10:32:39;;;;;;;0.77;0.50;;;18.70;99.90;;;;;;5048060;28;20025;-61
2023/07/26 10:35:04;;;;;;;1.10;0.70;;;18.60;99.90;;;;;;5028096;28;20029;-60
2023/07/26 10:37:33;;;;;;;2.42;0.85;;;18.40;99.90;;;;;;5048938;28;20116;-59
2023/07/26 10:40:04;;;;;;;1.67;0.75;;;18.30;99.90;;;;;;5046930;28;20017;-58
2023/07/26 10:42:30;;;;;;;0.70;0.65;;;18.10;99.90;;;;;;5047310;28;20025;-58
2023/07/26 10:45:02;;;;;;;0.77;0.77;;;18.00;99.90;;;;;;5047045;28;20073;-58
2023/07/26 10:47:28;;;;;;;1.10;0.70;;;17.90;99.90;;;;;;5041004;28;20021;-60
2023/07/26 10:49:57;;;;;;;1.70;0.70;;;17.70;99.90;;;;;;5048293;28;20575;-58
2023/07/26 10:52:34;;;;;;;1.60;0.98;;;17.60;99.90;;;;;;5045585;28;20056;-59
2023/07/26 10:55:00;;;;;;;0.60;0.50;;;17.70;99.90;;;;;;5030320;28;20025;-60
2023/07/26 10:57:36;;;;;;;2.13;0.75;;;17.90;99.90;;;;;;5043359;28;20033;-62
2023/07/26 11:00:10;;;;;;;0.88;0.70;;;18.10;99.90;;;;;;5024837;28;20474;-61
2023/07/26 11:02:42;;;;;;;1.42;0.57;;;18.20;99.90;;;;;;5043139;28;20037;-64
2023/07/26 11:05:15;;;;;;;1.10;0.73;;;18.40;99.90;;;;;;5023738;28;20026;-61
2023/07/26 11:08:00;;;;;;;2.30;0.70;;;18.60;99.90;;;;;;5023727;28;20017;-59
2023/07/26 11:10:36;;;;;;;3.05;0.77;;;18.70;99.90;;;;;;5039740;28;20427;-61
2023/07/26 11:13:16;;;;;;;3.30;0.82;;;18.60;99.90;;;;;;5035740;28;20021;-58
2023/07/26 11:15:44;;;;;;;1.58;0.77;;;18.60;99.90;;;;;;5020921;28;20029;-59
2023/07/26 11:18:10;;;;;;;1.25;0.80;;;18.60;99.90;;;;;;5047779;28;20029;-57
2023/07/26 11:20:43;;;;;;;1.30;0.60;;;18.60;99.90;;;;;;5039020;28;20020;-58
2023/07/26 11:23:26;;;;;;;1.80;0.77;;;18.70;99.90;;;;;;5036816;28;20037;-60
2023/07/26 11:25:55;;;;;;;2.45;1.17;;;18.70;99.90;;;;;;5034029;28;20017;-63
2023/07/26 11:28:21;;;;;;;1.60;0.70;;;18.70;99.90;;;;;;5038027;28;20632;-57
2023/07/26 11:30:52;;;;;;;1.67;1.00;;;18.60;99.90;;;;;;5043399;28;20033;-60
2023/07/26 11:33:29;;;;;;;0.98;0.80;;;18.60;99.90;;;;;;5042239;28;20036;-59
2023/07/26 11:35:55;;;;;;;1.27;0.77;;;18.60;99.90;;;;;;5030397;28;20075;-61
2023/07/26 11:38:22;;;;;;;1.40;0.63;;;18.70;99.90;;;;;;5047071;28;20053;-60
2023/07/26 11:40:50;;;;;;;2.45;0.90;;;18.60;99.90;;;;;;5042198;28;20045;-60
2023/07/26 11:43:16;;;;;;;1.13;0.60;;;18.50;99.90;;;;;;5046778;28;20116;-59
2023/07/26 11:45:43;;;;;;;3.28;0.75;;;18.30;99.90;;;;;;5044015;28;20014;-58
2023/07/26 11:48:10;;;;;;;0.95;0.63;;;18.10;99.90;;;;;;5045760;28;20147;-59
2023/07/26 11:50:36;;;;;;;1.45;0.93;;;17.90;99.90;;;;;;5041315;28;20029;-58
2023/07/26 11:53:11;;;;;;;1.08;0.70;;;17.60;99.90;;;;;;5044492;28;20028;-59
2023/07/26 11:55:41;;;;;;;4.28;1.20;;;17.30;99.90;;;;;;5024997;28;20061;-57
2023/07/26 11:58:09;;;;;;;1.17;0.50;;;17.10;99.90;;;;;;5023957;28;20111;-61
2023/07/26 12:00:38;;;;;;;2.05;0.70;;;17.00;99.90;;;;;;5044649;28;20025;-60
2023/07/26 12:03:05;;;;;;;0.90;0.50;;;16.90;99.90;;;;;;5044913;28;20021;-61
2023/07/26 12:05:31;;;;;;;0.82;0.70;;;16.90;99.90;;;;;;5029154;28;20017;-61
2023/07/26 12:07:59;;;;;;;0.73;0.60;;;16.70;99.90;;;;;;5042463;28;20025;-61
2023/07/26 12:10:28;;;;;;;1.23;0.90;;;16.60;99.90;;;;;;5045459;28;20028;-61
2023/07/26 12:12:55;;;;;;;1.02;0.57;;;16.60;99.90;;;;;;5035448;28;20023;-60
2023/07/26 12:15:21;;;;;;;0.32;0.20;;;16.50;99.90;;;;;;5043045;28;20103;-60
2023/07/26 12:18:03;;;;;;;1.67;0.40;;;16.50;99.90;;;;;;5039930;28;20037;-59
2023/07/26 12:20:30;;;;;;;0.57;0.57;;;16.60;99.90;;;;;;5041699;28;20509;-61
2023/07/26 12:22:58;;;;;;;0.68;0.40;;;16.70;99.90;;;;;;5018513;28;20484;-60
2023/07/26 12:25:37;;;;;;;0.57;0.43;;;16.90;99.90;;;;;;5025253;28;20025;-59
2023/07/26 12:28:07;;;;;;;1.38;1.25;;;16.90;99.90;;;;;;5017238;28;20021;-60
2023/07/26 12:30:34;;;;;;;0.65;0.60;;;17.00;99.90;;;;;;5024188;28;20516;-61
2023/07/26 12:33:13;;;;;;;0.68;0.63;;;17.20;99.90;;;;;;5039170;28;20079;-58
2023/07/26 12:35:44;;;;;;;0.60;0.60;;;17.30;99.90;;;;;;5040739;28;20407;-56
2023/07/26 12:38:14;;;;;;;0.40;0.40;;;17.40;99.90;;;;;;5043627;28;20494;-60
2023/07/26 12:40:40;;;;;;;0.80;0.60;;;17.50;99.90;;;;;;5024840;28;20025;-59
2023/07/26 12:43:30;;;;;;;3.33;0.75;;;17.60;99.90;;;;;;5044209;28;20373;-58
2023/07/26 12:45:57;;;;;;;1.13;0.70;;;17.80;99.90;;;;;;5041654;28;20104;-55
2023/07/26 12:48:24;;;;;;;1.05;0.77;;;17.80;99.90;;;;;;5045222;28;20033;-60